Time;durP1;ratioP1;P1;durP2;ratioP2;P2;SDS_P1;SDS_P2;PMS_P1;PMS_P2;Temp;Humidity;BMP_temperature;BMP_pressure;BME280_temperature;BME280_humidity;BME280_pressure;Samples;Min_cycle;Max_cycle;Signal;HPM_P1;HPM_P2
2021/11/01 00:02:14;;;;;;;1.42;1.17;;;;;;;17.42;70.85;97629.19;5120953;27;20030;-52
2021/11/01 00:04:43;;;;;;;2.58;1.60;;;;;;;17.41;70.81;97629.50;5139407;27;20027;-53
2021/11/01 00:07:10;;;;;;;5.32;1.73;;;;;;;17.34;71.76;97637.72;5139148;27;20039;-53
2021/11/01 00:09:36;;;;;;;3.20;1.50;;;;;;;17.26;72.07;97647.00;5139416;27;20068;-52
2021/11/01 00:12:03;;;;;;;8.73;2.53;;;;;;;17.06;72.75;97650.50;5120813;27;20035;-51
2021/11/01 00:14:30;;;;;;;2.45;1.83;;;;;;;16.87;74.32;97644.19;5139304;27;20015;-51
2021/11/01 00:16:57;;;;;;;3.75;1.65;;;;;;;16.76;75.11;97638.03;5139319;27;20463;-51
2021/11/01 00:19:24;;;;;;;43.35;38.22;;;;;;;16.61;75.19;97646.00;5139228;27;20012;-51
2021/11/01 00:21:51;;;;;;;17.15;12.18;;;;;;;16.44;75.87;97641.78;5120763;27;20030;-51
2021/11/01 00:24:17;;;;;;;74.13;58.10;;;;;;;16.43;77.17;97642.03;5139218;27;20500;-52
2021/11/01 00:26:42;;;;;;;22.40;15.13;;;;;;;16.46;78.57;97650.25;5139176;27;20061;-52
2021/11/01 00:29:10;;;;;;;10.02;3.80;;;;;;;16.66;78.58;97654.75;5139180;27;20049;-51
2021/11/01 00:31:36;;;;;;;8.13;3.70;;;;;;;16.52;78.15;97651.03;5139131;27;20059;-51
2021/11/01 00:34:02;;;;;;;10.45;3.38;;;;;;;16.48;78.73;97657.91;5139130;27;20369;-52
2021/11/01 00:36:28;;;;;;;5.95;4.00;;;;;;;16.43;78.97;97664.00;5120613;27;20034;-52
2021/11/01 00:38:54;;;;;;;5.40;2.15;;;;;;;16.41;79.76;97666.13;5139018;27;20544;-52
2021/11/01 00:41:19;;;;;;;14.23;3.33;;;;;;;16.31;79.94;97671.41;5139060;27;20072;-51
2021/11/01 00:43:46;;;;;;;6.05;1.70;;;;;;;16.31;80.44;97664.25;5120554;27;20023;-53
2021/11/01 00:46:12;;;;;;;6.10;2.03;;;;;;;16.26;80.76;97671.38;5120551;27;20133;-53
2021/11/01 00:48:37;;;;;;;10.43;2.97;;;;;;;16.17;80.95;97669.25;5138964;27;20551;-53
2021/11/01 00:51:03;;;;;;;7.32;3.72;;;;;;;16.15;81.40;97673.22;5138962;27;20114;-53
2021/11/01 00:53:32;;;;;;;8.38;2.50;;;;;;;16.20;81.75;97673.25;5139002;27;20072;-52
2021/11/01 00:55:59;;;;;;;11.85;3.78;;;;;;;16.25;81.87;97681.19;5116691;27;20029;-53
2021/11/01 00:58:26;;;;;;;10.75;2.92;;;;;;;16.24;82.05;97678.78;5136094;27;20019;-53
2021/11/01 01:00:53;;;;;;;12.13;4.30;;;;;;;16.07;81.71;97669.22;5117108;27;20027;-52
2021/11/01 01:03:19;;;;;;;10.00;3.83;;;;;;;15.86;82.12;97667.59;5135633;27;20103;-53
2021/11/01 01:05:46;;;;;;;17.67;3.53;;;;;;;15.76;82.69;97666.50;5135257;27;20114;-53
2021/11/01 01:08:14;;;;;;;9.02;3.30;;;;;;;15.69;82.68;97673.03;5135508;27;20034;-53
2021/11/01 01:10:42;;;;;;;17.95;4.50;;;;;;;15.65;82.93;97670.09;5135458;27;20044;-53
2021/11/01 01:13:08;;;;;;;9.10;6.68;;;;;;;15.69;83.52;97673.81;5135317;27;20026;-53
2021/11/01 01:15:51;;;;;;;8.75;4.85;;;;;;;15.72;84.13;97667.25;5116856;27;20042;-52
2021/11/01 01:18:24;;;;;;;8.80;4.85;;;;;;;15.86;83.89;97671.03;5135268;27;20023;-53
2021/11/01 01:20:50;;;;;;;7.75;4.60;;;;;;;15.88;83.87;97665.47;5135356;27;20499;-53
2021/11/01 01:23:17;;;;;;;13.18;5.90;;;;;;;15.94;84.14;97672.38;5135211;27;20053;-53
2021/11/01 01:25:49;;;;;;;10.25;4.63;;;;;;;15.98;83.90;97673.44;5135196;27;20023;-53
2021/11/01 01:28:15;;;;;;;21.15;4.35;;;;;;;15.91;83.36;97680.81;5116547;27;20039;-52
2021/11/01 01:30:42;;;;;;;10.80;2.10;;;;;;;15.82;83.46;97685.03;5116633;27;20026;-52
2021/11/01 01:33:09;;;;;;;10.10;1.80;;;;;;;15.71;83.60;97695.53;5135031;27;20022;-53
2021/11/01 01:35:42;;;;;;;6.78;0.80;;;;;;;15.54;82.89;97697.56;5134988;27;20023;-52
2021/11/01 01:38:10;;;;;;;5.97;0.93;;;;;;;15.10;81.88;97727.69;5134967;27;20027;-51
2021/11/01 01:40:37;;;;;;;13.20;0.98;;;;;;;14.79;82.33;97721.38;5116438;27;20482;-52
2021/11/01 01:43:04;;;;;;;9.88;1.10;;;;;;;14.53;82.13;97728.25;5134858;27;20029;-52
2021/11/01 01:45:31;;;;;;;7.07;0.73;;;;;;;14.33;82.51;97724.34;5134752;27;20016;-52
2021/11/01 01:47:57;;;;;;;6.22;1.08;;;;;;;14.23;83.15;97728.72;5134749;27;20030;-52
2021/11/01 01:50:24;;;;;;;10.18;1.10;;;;;;;14.16;83.55;97716.50;5134684;27;20030;-52
2021/11/01 01:52:50;;;;;;;10.70;1.00;;;;;;;14.03;83.17;97714.25;5134639;27;20102;-52
2021/11/01 01:55:17;;;;;;;22.50;1.30;;;;;;;13.79;83.12;97719.75;5134523;27;20019;-52
2021/11/01 01:57:44;;;;;;;18.40;0.80;;;;;;;13.55;83.37;97723.66;5134467;27;20074;-52
2021/11/01 02:00:26;;;;;;;11.45;1.45;;;;;;;13.39;84.17;97720.81;5134471;27;20055;-52
2021/11/01 02:02:53;;;;;;;17.83;1.67;;;;;;;13.33;83.98;97705.97;5134495;27;20024;-52
2021/11/01 02:05:19;;;;;;;8.68;1.17;;;;;;;13.25;84.55;97719.53;5134390;27;20027;-51
2021/11/01 02:08:05;;;;;;;22.95;1.45;;;;;;;13.37;84.84;97722.09;5115521;27;20054;-51
2021/11/01 02:10:36;;;;;;;7.47;0.65;;;;;;;13.31;84.24;97702.78;5134323;27;20035;-51
2021/11/01 02:13:15;;;;;;;2.45;0.43;;;;;;;13.11;84.37;97697.97;5134257;27;20045;-51
2021/11/01 02:15:48;;;;;;;9.27;1.08;;;;;;;12.98;84.79;97711.50;5134211;27;20141;-52
2021/11/01 02:18:15;;;;;;;17.67;1.65;;;;;;;13.09;85.22;97712.44;5134060;27;20020;-51
2021/11/01 02:20:58;;;;;;;7.47;2.05;;;;;;;12.98;85.21;97708.84;5134068;27;20023;-51
2021/11/01 02:23:45;;;;;;;7.97;1.58;;;;;;;12.94;85.62;97710.38;5134089;27;20050;-52
2021/11/01 02:26:13;;;;;;;5.45;0.98;;;;;;;13.01;84.84;97720.75;5133999;27;20075;-51
2021/11/01 02:28:41;;;;;;;7.03;0.88;;;;;;;12.92;85.07;97707.97;5133934;27;20027;-52
2021/11/01 02:31:11;;;;;;;9.63;1.48;;;;;;;12.74;85.62;97709.00;5133840;27;20016;-52
2021/11/01 02:33:38;;;;;;;8.30;3.58;;;;;;;12.92;86.25;97696.66;5134153;27;20385;-52
2021/11/01 02:36:04;;;;;;;8.75;4.78;;;;;;;13.22;86.76;97693.69;5133730;27;20054;-52
2021/11/01 02:38:31;;;;;;;12.68;3.30;;;;;;;13.53;87.17;97694.13;5133692;27;20062;-52
2021/11/01 02:40:59;;;;;;;9.43;1.35;;;;;;;13.67;86.71;97692.72;5133700;27;20058;-52
2021/11/01 02:43:28;;;;;;;14.35;2.60;;;;;;;13.39;85.69;97701.56;5133673;27;20106;-53
2021/11/01 02:45:56;;;;;;;10.02;1.58;;;;;;;13.49;86.77;97693.00;5133523;27;20030;-53
2021/11/01 02:48:22;;;;;;;10.50;0.93;;;;;;;13.45;85.82;97700.59;5133508;27;20393;-52
2021/11/01 02:50:48;;;;;;;5.82;0.93;;;;;;;13.15;85.78;97698.31;5115022;28;20038;-52
2021/11/01 02:53:14;;;;;;;4.70;1.00;;;;;;;12.96;85.43;97703.03;5133522;27;20392;-52
2021/11/01 02:55:39;;;;;;;9.52;1.63;;;;;;;12.75;85.80;97697.41;5133429;27;20027;-52
2021/11/01 02:58:06;;;;;;;5.75;1.70;;;;;;;12.93;87.31;97704.28;5133261;27;20503;-53
2021/11/01 03:00:33;;;;;;;14.05;1.60;;;;;;;13.11;87.22;97703.25;5133374;27;20027;-52
2021/11/01 03:02:59;;;;;;;4.53;0.63;;;;;;;13.18;86.96;97700.47;5133351;27;20011;-52
2021/11/01 03:05:28;;;;;;;6.60;1.30;;;;;;;13.12;87.03;97707.50;5133005;27;20042;-52
2021/11/01 03:07:56;;;;;;;8.52;1.13;;;;;;;13.20;86.86;97698.38;5133250;27;20109;-52
2021/11/01 03:10:24;;;;;;;7.18;1.05;;;;;;;13.16;86.02;97699.91;5133160;27;20030;-52
2021/11/01 03:12:52;;;;;;;8.25;0.70;;;;;;;13.04;86.17;97702.63;5133143;27;20026;-52
2021/11/01 03:15:28;;;;;;;13.63;1.13;;;;;;;13.03;86.17;97703.66;5133129;27;20076;-53
2021/11/01 03:18:11;;;;;;;15.65;0.93;;;;;;;13.04;86.25;97714.97;5132458;27;20027;-53
2021/11/01 03:20:45;;;;;;;19.73;2.28;;;;;;;12.95;85.80;97707.47;5133142;27;20027;-52
2021/11/01 03:23:18;;;;;;;14.52;1.83;;;;;;;12.84;86.24;97684.66;5132988;27;20030;-52
2021/11/01 03:26:21;;;;;;;18.88;2.28;;;;;;;12.79;86.67;97693.28;5133041;27;20023;-52
2021/11/01 03:28:54;;;;;;;6.95;1.73;;;;;;;12.85;87.36;97690.72;5090229;27;20035;-52
2021/11/01 03:31:22;;;;;;;40.95;2.80;;;;;;;12.99;87.49;97692.78;5132982;27;20038;-52
2021/11/01 03:33:51;;;;;;;14.35;4.15;;;;;;;13.07;87.20;97685.53;5114488;27;20030;-52
2021/11/01 03:36:17;;;;;;;4.57;2.45;;;;;;;13.07;87.10;97682.91;5132849;27;20026;-52
2021/11/01 03:38:43;;;;;;;12.40;1.65;;;;;;;13.16;87.49;97681.47;5132759;27;20023;-52
2021/11/01 03:41:11;;;;;;;4.80;0.73;;;;;;;13.12;86.91;97669.78;5132786;27;20576;-52
2021/11/01 03:43:44;;;;;;;11.30;1.23;;;;;;;13.10;87.15;97672.69;5132815;28;20467;-52
2021/11/01 03:46:11;;;;;;;18.80;1.73;;;;;;;13.19;87.46;97673.06;5132782;28;20023;-52
2021/11/01 03:48:40;;;;;;;3.53;1.05;;;;;;;13.23;87.29;97670.75;5132712;28;20031;-52
2021/11/01 03:53:33;;;;;;;8.73;1.25;;;;;;;13.10;86.24;97675.31;5132658;28;20061;-52
2021/11/01 03:55:59;;;;;;;11.15;1.50;;;;;;;12.90;86.28;97688.97;5132616;28;20536;-53
2021/11/01 03:58:26;;;;;;;5.38;0.82;;;;;;;12.76;86.11;97685.88;5114085;28;20030;-52
2021/11/01 04:00:52;;;;;;;12.27;1.13;;;;;;;12.65;86.28;97686.72;5132560;28;20387;-52
2021/11/01 04:03:36;;;;;;;13.60;1.50;;;;;;;12.55;86.05;97683.91;5132573;28;20019;-52
2021/11/01 04:06:05;;;;;;;4.63;0.90;;;;;;;12.45;86.08;97692.44;5132235;28;20033;-52
2021/11/01 04:08:31;;;;;;;6.80;0.85;;;;;;;12.41;86.35;97693.16;5114074;28;20046;-52
2021/11/01 04:10:57;;;;;;;3.92;1.35;;;;;;;12.38;86.90;97703.13;5132473;28;20538;-53
2021/11/01 04:13:24;;;;;;;7.03;1.10;;;;;;;12.44;87.01;97698.75;5132422;28;20068;-53
2021/11/01 04:16:00;;;;;;;7.00;1.48;;;;;;;12.46;87.16;97714.31;5132473;28;20047;-52
2021/11/01 04:18:40;;;;;;;6.50;0.95;;;;;;;12.47;86.97;97710.63;5132403;28;20023;-52
2021/11/01 04:21:09;;;;;;;6.65;1.40;;;;;;;12.42;86.82;97711.34;5114017;28;20465;-53
2021/11/01 04:23:36;;;;;;;3.50;0.80;;;;;;;12.41;87.03;97716.84;5132389;28;20037;-53
2021/11/01 04:26:02;;;;;;;8.23;0.93;;;;;;;12.39;87.25;97715.25;5113803;28;20027;-51
2021/11/01 04:28:30;;;;;;;6.15;0.95;;;;;;;12.38;87.25;97718.91;5132308;28;20463;-52
2021/11/01 04:31:05;;;;;;;9.25;1.13;;;;;;;12.37;87.29;97717.31;5135420;27;20019;-52
2021/11/01 04:33:31;;;;;;;5.47;1.50;;;;;;;12.47;87.49;97719.31;5136254;27;20038;-53
2021/11/01 04:35:56;;;;;;;3.53;1.17;;;;;;;12.56;87.32;97722.38;5136085;27;20070;-52
2021/11/01 04:38:38;;;;;;;6.70;0.80;;;;;;;12.58;87.02;97723.72;5117645;27;20026;-52
2021/11/01 04:44:15;;;;;;;4.65;0.68;;;;;;;12.36;86.83;97718.34;5136084;27;20080;-53
2021/11/01 04:54:55;;;;;;;2.92;1.50;;;;;;;11.93;86.50;97714.38;5135832;27;20026;-52
2021/11/01 04:57:21;;;;;;;8.10;1.80;;;;;;;11.93;87.04;97716.19;5135610;27;20034;-52
2021/11/01 04:59:48;;;;;;;4.70;2.42;;;;;;;11.92;86.72;97714.59;5135705;27;20016;-53
2021/11/01 05:02:14;;;;;;;8.20;1.73;;;;;;;11.89;86.67;97715.88;5135669;27;20387;-52
2021/11/01 05:04:41;;;;;;;4.97;2.88;;;;;;;11.90;86.87;97716.66;5117188;27;20103;-53
2021/11/01 05:07:08;;;;;;;6.07;2.22;;;;;;;11.92;86.87;97714.59;5135298;27;20127;-53
2021/11/01 05:10:23;;;;;;;4.38;1.88;;;;;;;11.92;87.29;97722.50;5135539;27;20031;-53
2021/11/01 05:12:38;;;;;;;3.50;1.52;;;;;;;11.93;86.97;97714.38;5121545;27;20039;-53
2021/11/01 05:25:47;;;;;;;7.30;1.15;;;;;;;11.99;87.27;97723.16;5135284;27;20435;-53
2021/11/01 05:30:54;;;;;;;5.90;1.67;;;;;;;11.95;87.17;97714.13;5135098;27;20490;-53
2021/11/01 05:35:45;;;;;;;4.68;2.22;;;;;;;12.07;87.47;97703.56;5135346;27;20403;-53
2021/11/01 05:38:11;;;;;;;6.15;1.42;;;;;;;12.11;87.71;97686.28;5134926;27;20103;-53
2021/11/01 05:40:37;;;;;;;5.80;1.30;;;;;;;12.13;87.58;97682.41;5134689;27;20027;-53
2021/11/01 05:43:03;;;;;;;1.65;1.23;;;;;;;12.11;86.58;97683.66;5134362;27;20020;-53
2021/11/01 05:45:29;;;;;;;4.85;2.05;;;;;;;11.98;86.13;97679.50;5134803;27;20038;-53
2021/11/01 05:47:58;;;;;;;2.67;1.33;;;;;;;11.98;86.76;97687.38;5116292;27;20062;-53
2021/11/01 05:50:25;;;;;;;4.63;1.88;;;;;;;11.95;86.74;97685.22;5134742;27;20015;-53
2021/11/01 05:52:52;;;;;;;3.63;2.05;;;;;;;12.00;87.21;97664.28;5134687;27;20491;-53
2021/11/01 05:58:19;;;;;;;1.48;0.93;;;;;;;11.99;86.32;97666.13;5134597;27;20087;-52
2021/11/01 06:13:34;;;;;;;1.70;0.60;;;;;;;12.10;87.03;97698.66;5134587;27;20031;-53
2021/11/01 06:16:02;;;;;;;1.60;0.40;;;;;;;12.19;87.45;97693.81;5134250;27;20022;-53
2021/11/01 06:18:37;;;;;;;1.58;0.60;;;;;;;12.23;87.36;97694.16;5134081;27;20023;-53
2021/11/01 06:21:17;;;;;;;1.52;0.60;;;;;;;12.18;86.93;97705.38;5134153;27;20027;-52
2021/11/01 06:23:51;;;;;;;1.83;0.60;;;;;;;12.14;87.01;97694.53;5134076;27;20031;-54
2021/11/01 06:26:17;;;;;;;3.00;0.63;;;;;;;12.04;86.02;97691.69;5115614;27;20038;-53
2021/11/01 06:28:44;;;;;;;3.28;0.80;;;;;;;11.94;86.26;97713.34;5133945;27;20188;-54
2021/11/01 06:31:16;;;;;;;2.33;1.10;;;;;;;11.98;86.93;97734.72;5133903;27;20504;-54
2021/11/01 06:44:32;;;;;;;1.80;1.10;;;;;;;12.14;86.85;97739.25;5133730;27;20084;-52
2021/11/01 06:49:57;;;;;;;2.92;1.33;;;;;;;12.17;87.14;97736.16;5133585;27;20080;-54
2021/11/01 06:53:45;;;;;;;5.22;1.27;;;;;;;12.28;87.25;97741.59;5133196;27;20034;-54
2021/11/01 06:58:05;;;;;;;6.05;1.55;;;;;;;12.48;87.34;97746.44;5133469;27;20019;-52
2021/11/01 07:14:28;;;;;;;8.38;2.50;;;;;;;13.85;88.12;97748.84;5133163;27;20031;-54
2021/11/01 07:16:58;;;;;;;9.95;2.25;;;;;;;13.79;87.95;97758.53;5133164;27;20015;-53
2021/11/01 07:19:48;;;;;;;5.03;1.50;;;;;;;13.81;88.05;97766.19;5133047;27;20038;-54
2021/11/01 07:25:21;;;;;;;18.75;8.65;;;;;;;13.58;87.42;97783.81;5133045;27;20491;-53
2021/11/01 08:22:56;;;;;;;8.35;3.05;;;;;;;13.14;87.94;97807.38;5136832;27;20031;-54
2021/11/01 08:28:23;;;;;;;6.07;2.58;;;;;;;12.97;87.50;97800.22;5136467;27;20522;-53
2021/11/01 08:36:19;;;;;;;10.63;3.60;;;;;;;13.08;88.15;97801.22;5136511;27;20037;-53
2021/11/01 09:03:30;;;;;;;7.15;4.72;;;;;;;13.49;88.21;97801.09;5052353;28;20123;-54
2021/11/01 09:06:11;;;;;;;13.48;3.92;;;;;;;13.55;88.00;97806.19;5052007;28;20512;-55
2021/11/01 09:27:05;;;;;;;5.63;1.55;;;;;;;13.98;87.39;97807.31;5063758;27;20043;-54
2021/11/01 09:43:00;;;;;;;3.40;1.60;;;;;;;14.01;86.52;97789.41;5135269;27;20038;-53
2021/11/01 09:45:29;;;;;;;3.05;1.20;;;;;;;13.92;86.06;97789.84;5134826;27;20012;-53
2021/11/01 09:47:55;;;;;;;6.32;1.50;;;;;;;13.91;85.68;97798.00;5134827;27;20381;-53
2021/11/01 09:50:23;;;;;;;4.85;1.10;;;;;;;13.83;85.66;97799.19;5116249;27;20034;-54
2021/11/01 09:52:57;;;;;;;1.85;1.02;;;;;;;13.84;85.67;97795.50;5134754;27;20102;-53
2021/11/01 09:56:19;;;;;;;2.38;0.90;;;;;;;13.80;85.19;97797.03;5134675;27;20019;-53
2021/11/01 10:01:06;;;;;;;2.97;0.75;;;;;;;14.05;85.05;97793.94;5134859;27;20029;-53
2021/11/01 10:03:37;;;;;;;5.50;0.98;;;;;;;14.04;84.84;97786.28;5134547;27;20502;-52
2021/11/01 10:06:05;;;;;;;3.72;1.20;;;;;;;14.08;84.58;97793.44;5134193;27;20043;-53
2021/11/01 10:08:31;;;;;;;2.60;0.50;;;;;;;14.31;84.60;97792.41;5116075;27;20034;-52
2021/11/01 10:10:58;;;;;;;1.98;0.30;;;;;;;14.33;83.55;97786.91;5115858;27;20027;-52
2021/11/01 10:13:26;;;;;;;4.07;0.52;;;;;;;14.42;83.46;97790.69;5115776;27;20399;-52
2021/11/01 10:18:48;;;;;;;1.83;0.50;;;;;;;14.51;82.45;97791.84;5134187;27;20172;-52
2021/11/01 10:21:16;;;;;;;17.95;5.47;;;;;;;14.53;82.42;97789.75;5134093;27;20019;-52
2021/11/01 10:23:55;;;;;;;2.70;0.98;;;;;;;14.57;81.66;97790.88;5134066;27;20038;-52
2021/11/01 10:26:24;;;;;;;1.60;0.57;;;;;;;14.49;81.62;97793.16;5133960;27;20031;-51
2021/11/01 10:28:53;;;;;;;1.95;0.60;;;;;;;14.46;81.52;97789.13;5133776;27;20019;-51
2021/11/01 10:31:22;;;;;;;7.90;1.25;;;;;;;14.48;81.63;97784.41;5115455;27;20030;-51
2021/11/01 10:33:50;;;;;;;2.50;0.50;;;;;;;14.71;81.86;97786.00;5133872;27;20019;-51
2021/11/01 10:36:25;;;;;;;8.52;1.25;;;;;;;14.86;80.65;97777.44;5133705;27;20227;-51
2021/11/01 10:38:57;;;;;;;6.90;1.23;;;;;;;14.91;80.45;97774.03;5134077;27;20457;-51
2021/11/01 10:44:08;;;;;;;2.10;0.90;;;;;;;15.25;79.29;97769.31;5133772;27;20456;-51
2021/11/01 11:13:44;;;;;;;6.78;0.80;;;;;;;14.96;78.88;97752.94;5133172;27;20039;-51
2021/11/01 11:16:20;;;;;;;4.55;0.85;;;;;;;14.98;78.35;97756.94;5133182;27;20046;-51
2021/11/01 11:18:56;;;;;;;3.00;0.75;;;;;;;15.05;78.42;97758.56;5133074;27;20396;-51
2021/11/01 11:21:49;;;;;;;4.15;0.70;;;;;;;14.97;78.26;97749.28;5133185;27;20103;-51
2021/11/01 11:24:42;;;;;;;3.92;1.30;;;;;;;15.02;77.92;97751.94;5133003;27;20110;-52
2021/11/01 11:47:37;;;;;;;1.40;0.65;;;;;;;15.44;76.96;97753.84;5132772;28;20039;-52
2021/11/01 11:49:57;;;;;;;7.63;0.90;;;;;;;15.54;76.45;97750.47;5127772;28;20031;-51
2021/11/01 11:52:24;;;;;;;4.00;0.98;;;;;;;15.56;76.38;97745.72;5114190;28;20038;-52
2021/11/01 11:55:04;;;;;;;10.05;1.50;;;;;;;15.71;76.52;97750.28;5132739;28;20011;-51
2021/11/01 11:57:35;;;;;;;3.80;0.77;;;;;;;15.86;74.35;97744.31;5132721;28;20027;-52
2021/11/01 12:00:05;;;;;;;6.00;1.38;;;;;;;15.63;74.75;97743.63;5114181;28;20034;-51
2021/11/01 12:02:42;;;;;;;6.05;1.00;;;;;;;15.44;76.09;97745.91;5132637;28;20107;-52
2021/11/01 12:05:12;;;;;;;6.60;1.15;;;;;;;15.19;76.31;97754.44;5132659;28;20030;-51
2021/11/01 12:07:58;;;;;;;4.07;0.88;;;;;;;14.91;74.68;97747.59;5132364;28;20035;-52
2021/11/01 12:13:55;;;;;;;14.77;6.50;;;;;;;15.31;78.48;97754.25;5132537;28;20034;-52
2021/11/01 12:19:04;;;;;;;7.55;1.38;;;;;;;15.07;78.56;97752.00;5132425;28;20033;-53
2021/11/01 12:21:36;;;;;;;8.00;1.42;;;;;;;14.89;79.65;97757.63;5115093;28;20076;-52
2021/11/01 12:24:07;;;;;;;8.05;1.10;;;;;;;14.61;79.59;97756.88;5132468;28;20023;-52
2021/11/01 12:26:33;;;;;;;3.45;1.10;;;;;;;14.47;80.60;97758.28;5113878;28;20126;-52
2021/11/01 12:29:01;;;;;;;3.28;0.68;;;;;;;14.28;80.71;97763.06;5113957;28;20106;-52
2021/11/01 12:31:29;;;;;;;17.65;4.05;;;;;;;14.12;80.78;97759.47;5132411;28;20015;-52
2021/11/01 12:34:02;;;;;;;7.28;1.70;;;;;;;13.95;81.35;97762.16;5132253;28;20148;-53
2021/11/01 12:39:20;;;;;;;13.02;6.07;;;;;;;13.71;82.42;97770.28;5132309;28;20026;-51
2021/11/01 12:58:50;;;;;;;11.88;3.25;;;;;;;13.54;82.94;97751.06;5135968;27;20511;-51
2021/11/01 13:01:17;;;;;;;5.80;1.50;;;;;;;13.62;82.08;97753.28;5117339;27;20030;-52
2021/11/01 13:03:53;;;;;;;13.25;1.83;;;;;;;13.56;82.03;97748.97;5135705;27;20024;-51
2021/11/01 13:06:40;;;;;;;10.05;1.25;;;;;;;13.67;82.52;97753.34;5135400;27;20552;-51
2021/11/01 13:09:12;;;;;;;7.18;2.50;;;;;;;13.87;83.12;97746.75;5135621;27;20136;-52
2021/11/01 13:11:56;;;;;;;12.00;3.90;;;;;;;14.13;82.68;97743.38;5135605;27;20023;-53
2021/11/01 13:14:44;;;;;;;4.43;1.20;;;;;;;14.38;81.78;97739.44;5135613;27;20019;-50
2021/11/01 13:19:56;;;;;;;2.72;1.00;;;;;;;14.67;81.35;97726.00;5135425;27;20030;-52
2021/11/01 13:22:30;;;;;;;4.50;1.58;;;;;;;14.94;80.63;97731.25;5135375;27;20068;-52
2021/11/01 13:28:17;;;;;;;7.05;1.67;;;;;;;15.18;78.50;97703.44;5135271;27;20028;-52
2021/11/01 13:38:42;;;;;;;7.60;2.72;;;;;;;14.63;76.37;97704.59;5135073;27;20027;-52
2021/11/01 13:41:10;;;;;;;7.43;2.53;;;;;;;14.49;76.30;97709.47;5134864;27;20072;-53
2021/11/01 13:43:37;;;;;;;5.30;1.73;;;;;;;14.35;77.13;97708.25;5116445;27;20030;-52
2021/11/01 13:46:03;;;;;;;7.95;2.60;;;;;;;14.36;77.45;97715.91;5116371;27;20027;-53
2021/11/01 13:48:32;;;;;;;4.57;1.65;;;;;;;14.43;77.11;97705.19;5134850;27;20108;-53
2021/11/01 13:51:28;;;;;;;13.13;5.55;;;;;;;14.57;77.07;97716.94;5134721;27;20023;-52
2021/11/01 13:56:50;;;;;;;56.78;50.97;;;;;;;14.86;77.05;97706.09;5134734;27;20038;-52
2021/11/01 14:02:29;;;;;;;11.27;4.65;;;;;;;14.85;75.79;97699.25;5134164;27;20055;-52
2021/11/01 14:13:23;;;;;;;2.65;1.10;;;;;;;14.72;74.49;97684.59;5134455;27;20035;-52
2021/11/01 14:26:46;;;;;;;2.80;1.05;;;;;;;14.43;73.57;97683.25;5134226;27;20024;-52
2021/11/01 14:27:09;;;;;;;16.55;2.13;;;;;;;14.31;75.20;97688.69;5134192;27;20036;-52
2021/11/01 15:01:52;;;;;;;5.22;0.90;;;;;;;14.13;73.38;97693.25;5133397;27;20019;-51
2021/11/01 15:33:40;;;;;;;1905.68;887.03;;;;;;;13.51;74.28;97712.81;5049665;28;20031;-52
2021/11/01 16:19:41;;;;;;;8.10;2.92;;;;;;;12.54;76.76;97722.59;5132526;28;20021;-53
2021/11/01 16:22:09;;;;;;;4.95;2.05;;;;;;;12.46;76.87;97719.56;5132534;28;20114;-52
2021/11/01 16:24:37;;;;;;;5.00;2.22;;;;;;;12.47;76.78;97715.88;5132492;28;20016;-52
2021/11/01 16:27:03;;;;;;;5.75;2.20;;;;;;;12.44;76.88;97717.16;5135708;27;20023;-53
2021/11/01 16:32:41;;;;;;;5.95;3.13;;;;;;;12.31;75.93;97715.59;5090351;27;20039;-52
2021/11/01 16:35:08;;;;;;;12.07;4.05;;;;;;;12.21;76.22;97704.09;5136312;27;20054;-52
2021/11/01 16:40:12;;;;;;;4.10;1.83;;;;;;;12.17;75.46;97703.75;5136174;27;20031;-53
2021/11/01 16:42:41;;;;;;;9.13;4.80;;;;;;;12.05;76.35;97700.38;5117718;27;20051;-53
2021/11/01 16:45:12;;;;;;;13.05;6.00;;;;;;;11.87;77.26;97696.06;5136065;27;20065;-53
2021/11/01 16:47:41;;;;;;;18.40;16.10;;;;;;;11.71;77.89;97693.16;5136082;27;20028;-52
2021/11/01 16:50:10;;;;;;;8.82;7.82;;;;;;;11.58;78.52;97696.00;5135977;27;20015;-52
2021/11/01 16:52:38;;;;;;;14.25;8.82;;;;;;;11.55;79.16;97699.91;5117453;27;20038;-52
2021/11/01 16:55:10;;;;;;;14.90;9.45;;;;;;;11.64;79.68;97704.81;5135856;27;20019;-52
2021/11/01 16:57:44;;;;;;;11.93;7.43;;;;;;;11.71;78.42;97690.50;5135902;27;20060;-52
2021/11/01 17:05:39;;;;;;;8.15;2.65;;;;;;;11.91;78.89;97699.84;5136100;27;20072;-53
2021/11/01 17:21:36;;;;;;;5.18;2.63;;;;;;;11.60;78.06;97710.50;5135431;27;20031;-52
2021/11/01 17:26:49;;;;;;;7.28;3.30;;;;;;;11.40;77.96;97721.38;5135237;27;20031;-53
2021/11/01 17:35:41;;;;;;;13.35;4.03;;;;;;;11.18;79.88;97712.47;5135224;27;20441;-53
2021/11/01 17:38:50;;;;;;;13.95;3.20;;;;;;;11.26;79.58;97725.28;5115612;27;20385;-52
2021/11/01 18:41:47;;;;;;;274.67;247.02;;;;;;;10.62;78.17;97766.25;5133711;27;20115;-53
2021/11/01 18:44:33;;;;;;;217.63;197.38;;;;;;;10.78;78.72;97773.47;5133766;27;20083;-52
2021/11/01 18:52:31;;;;;;;7.22;4.40;;;;;;;10.72;75.95;97769.91;5133912;27;20088;-52
2021/11/01 18:55:03;;;;;;;10.43;7.25;;;;;;;10.61;76.41;97760.19;5133619;27;20027;-52
2021/11/01 18:57:33;;;;;;;13.02;7.35;;;;;;;10.55;77.13;97759.25;5133575;27;20031;-52
2021/11/01 19:00:04;;;;;;;9.23;5.00;;;;;;;10.58;77.23;97758.00;5114986;27;20060;-52
2021/11/01 19:02:44;;;;;;;10.15;4.75;;;;;;;10.62;76.56;97758.38;5133518;27;20026;-51
2021/11/01 19:05:26;;;;;;;8.52;4.55;;;;;;;10.55;77.47;97756.63;5133477;27;20135;-52
2021/11/01 20:08:18;;;;;;;23.50;16.23;;;;;;;10.29;76.23;97762.22;5136661;27;20095;-52
2021/11/01 20:13:25;;;;;;;10.85;6.18;;;;;;;10.49;76.73;97759.38;5136783;27;20023;-52
2021/11/01 21:25:43;;;;;;;12.23;5.40;;;;;;;10.54;75.52;97764.72;5135676;27;20091;-52
2021/11/01 21:28:08;;;;;;;12.77;5.32;;;;;;;10.69;74.76;97764.34;5135308;27;20019;-52
2021/11/01 21:30:34;;;;;;;10.05;6.03;;;;;;;10.67;74.83;97764.56;5116743;27;20030;-52
2021/11/01 21:33:00;;;;;;;8.05;5.32;;;;;;;10.61;74.49;97759.41;5135237;27;20044;-52
2021/11/01 21:35:31;;;;;;;8.73;5.03;;;;;;;10.58;74.56;97753.59;5116597;27;20488;-52
2021/11/01 21:37:59;;;;;;;12.73;6.70;;;;;;;10.53;74.33;97753.44;5135053;27;20092;-52
2021/11/01 21:40:25;;;;;;;11.85;5.63;;;;;;;10.50;74.42;97750.44;5116587;27;20079;-52
2021/11/01 21:42:52;;;;;;;9.05;4.90;;;;;;;10.44;74.33;97748.72;5135036;27;20015;-52
2021/11/01 21:45:18;;;;;;;10.57;5.43;;;;;;;10.39;74.32;97746.78;5134895;27;20020;-52
2021/11/01 21:47:44;;;;;;;15.43;5.57;;;;;;;10.39;74.70;97738.91;5134909;27;20072;-52
2021/11/01 21:50:10;;;;;;;14.38;6.57;;;;;;;10.45;74.72;97738.00;5134890;27;20023;-52
2021/11/01 21:52:38;;;;;;;8.20;5.07;;;;;;;10.61;74.14;97733.97;5134893;27;20107;-52
2021/11/01 21:55:06;;;;;;;8.75;5.80;;;;;;;10.78;74.35;97729.69;5134741;27;20030;-52
2021/11/01 22:00:22;;;;;;;61.15;54.45;;;;;;;10.69;73.68;97725.78;5134595;27;20038;-52
2021/11/01 22:24:37;;;;;;;11.43;6.03;;;;;;;10.62;75.11;97705.91;5134068;27;20050;-52
2021/11/01 22:40:31;;;;;;;11.70;5.28;;;;;;;10.89;74.61;97686.09;5133895;27;20511;-52
2021/11/01 22:45:22;;;;;;;10.70;5.75;;;;;;;11.19;72.85;97691.25;5134025;27;20030;-52
2021/11/01 22:56:02;;;;;;;10.93;5.82;;;;;;;10.58;73.24;97700.28;5133680;27;20084;-52
2021/11/01 22:58:28;;;;;;;10.25;4.47;;;;;;;10.60;73.25;97687.75;5133579;27;20031;-52
2021/11/01 23:00:59;;;;;;;10.70;5.18;;;;;;;10.56;73.41;97689.22;5133566;27;20106;-52
2021/11/01 23:03:39;;;;;;;11.15;4.07;;;;;;;10.57;73.00;97672.47;5133730;27;20072;-52
2021/11/01 23:06:29;;;;;;;12.40;4.93;;;;;;;10.47;73.35;97677.47;5133353;27;20037;-52
2021/11/01 23:33:32;;;;;;;13.98;3.08;;;;;;;11.47;74.06;97660.84;5133056;27;20034;-52
2021/11/01 23:35:58;;;;;;;6.45;3.47;;;;;;;11.71;73.57;97652.91;5132115;27;20027;-52
2021/11/01 23:38:25;;;;;;;6.63;3.50;;;;;;;11.77;72.20;97650.16;5114334;27;20027;-51
2021/11/01 23:40:51;;;;;;;7.72;2.90;;;;;;;11.82;71.78;97648.66;5132877;27;20022;-52
2021/11/01 23:43:17;;;;;;;21.33;15.88;;;;;;;11.92;71.18;97649.66;5132886;27;20015;-52
2021/11/01 23:45:45;;;;;;;9.43;6.18;;;;;;;11.89;70.95;97644.06;5132798;27;20031;-52
2021/11/01 23:48:12;;;;;;;17.58;10.30;;;;;;;11.85;70.11;97641.09;5132777;27;20023;-52
2021/11/01 23:50:39;;;;;;;32.17;23.27;;;;;;;11.78;69.32;97637.81;5132750;28;20027;-52
2021/11/01 23:53:12;;;;;;;6.32;3.28;;;;;;;11.73;69.44;97642.94;5132780;28;20072;-52